Time;durP1;ratioP1;P1;durP2;ratioP2;P2;SDS_P1;SDS_P2;PMS_P1;PMS_P2;Temp;Humidity;BMP_temperature;BMP_pressure;BME280_temperature;BME280_humidity;BME280_pressure;Samples;Min_cycle;Max_cycle;Signal;HPM_P1;HPM_P2
2021/11/11 00:02:08;;;;;;;64.80;39.10;;;3.30;99.90;;;;;;4927912;29;20046;-86
2021/11/11 00:04:34;;;;;;;67.65;38.83;;;3.40;99.90;;;;;;4931705;29;20044;-86
2021/11/11 00:07:01;;;;;;;65.57;40.10;;;3.30;99.90;;;;;;4927330;29;20086;-87
2021/11/11 00:09:28;;;;;;;58.78;37.92;;;3.20;99.90;;;;;;4933085;29;20031;-85
2021/11/11 00:11:56;;;;;;;60.72;38.75;;;3.20;99.90;;;;;;4927563;29;20035;-84
2021/11/11 00:14:22;;;;;;;67.78;40.42;;;3.20;99.90;;;;;;4930355;29;20087;-87
2021/11/11 00:16:48;;;;;;;60.55;37.72;;;3.20;99.90;;;;;;4930003;29;20071;-84
2021/11/11 00:19:14;;;;;;;66.45;39.53;;;3.20;99.90;;;;;;4914954;29;20443;-84
2021/11/11 00:21:39;;;;;;;59.97;38.22;;;3.20;99.90;;;;;;4939009;29;20043;-86
2021/11/11 00:24:05;;;;;;;68.18;39.78;;;3.10;99.90;;;;;;4935290;29;20194;-86
2021/11/11 00:26:31;;;;;;;68.68;39.47;;;3.10;99.90;;;;;;4930888;29;20392;-87
2021/11/11 00:28:56;;;;;;;64.22;39.50;;;3.10;99.90;;;;;;4931354;29;20067;-84
2021/11/11 00:31:23;;;;;;;63.47;39.47;;;3.10;99.90;;;;;;4933437;29;20031;-84
2021/11/11 00:33:48;;;;;;;57.83;37.05;;;3.10;99.90;;;;;;4941035;29;20046;-85
2021/11/11 00:36:14;;;;;;;64.30;38.50;;;3.10;99.90;;;;;;4933855;29;20040;-85
2021/11/11 00:38:40;;;;;;;64.40;39.67;;;3.00;99.90;;;;;;4930043;29;20415;-84
2021/11/11 00:41:06;;;;;;;67.53;41.70;;;3.10;99.90;;;;;;4929929;29;20036;-85
2021/11/11 00:43:33;;;;;;;56.22;36.47;;;3.00;99.90;;;;;;4933025;29;20531;-86
2021/11/11 00:45:59;;;;;;;61.80;39.22;;;3.00;99.90;;;;;;4942921;29;20122;-87
2021/11/11 00:48:25;;;;;;;61.92;38.75;;;3.00;99.90;;;;;;4935211;29;20414;-87
2021/11/11 00:50:53;;;;;;;62.47;40.58;;;3.00;99.90;;;;;;4936311;29;20040;-85
2021/11/11 00:53:19;;;;;;;65.03;39.42;;;2.90;99.90;;;;;;4933396;29;20036;-85
2021/11/11 00:55:45;;;;;;;62.95;40.15;;;2.90;99.90;;;;;;4931854;29;20036;-87
2021/11/11 00:58:11;;;;;;;65.55;39.30;;;2.90;99.90;;;;;;4935748;29;20043;-84
2021/11/11 01:00:38;;;;;;;60.08;36.65;;;2.90;99.90;;;;;;4937082;29;20167;-85
2021/11/11 01:03:08;;;;;;;70.68;40.00;;;2.70;99.90;;;;;;4932802;29;20062;-86
2021/11/11 01:05:34;;;;;;;56.92;36.35;;;2.70;99.90;;;;;;4936278;29;20027;-85
2021/11/11 01:08:00;;;;;;;58.08;36.05;;;2.70;99.90;;;;;;4937007;29;20044;-85
2021/11/11 01:10:27;;;;;;;56.45;34.65;;;2.70;99.90;;;;;;4941119;29;20559;-84
2021/11/11 01:12:53;;;;;;;58.17;37.03;;;2.70;99.90;;;;;;4945962;29;20040;-85
2021/11/11 01:15:23;;;;;;;50.95;35.38;;;2.60;99.90;;;;;;4942335;29;20098;-86
2021/11/11 01:17:49;;;;;;;53.83;34.80;;;2.60;99.90;;;;;;4931320;29;20039;-88
2021/11/11 01:20:16;;;;;;;60.35;37.30;;;2.60;99.90;;;;;;4940942;29;20036;-85
2021/11/11 01:22:44;;;;;;;63.63;38.10;;;2.60;99.90;;;;;;4934351;29;20127;-85
2021/11/11 01:25:15;;;;;;;60.72;38.80;;;2.50;99.90;;;;;;4934541;29;20027;-84
2021/11/11 01:27:41;;;;;;;60.70;38.35;;;2.40;99.90;;;;;;4936458;29;20044;-87
2021/11/11 01:30:08;;;;;;;60.10;39.53;;;2.50;99.90;;;;;;4934660;29;20162;-87
2021/11/11 01:32:34;;;;;;;64.80;38.20;;;2.40;99.90;;;;;;4934543;29;20046;-87
2021/11/11 01:35:00;;;;;;;63.60;38.85;;;2.50;99.90;;;;;;4934827;29;20040;-87
2021/11/11 01:37:26;;;;;;;58.88;36.95;;;2.40;99.90;;;;;;4932860;29;20040;-87
2021/11/11 01:39:52;;;;;;;54.30;35.30;;;2.40;99.90;;;;;;4934411;29;20415;-87
2021/11/11 01:42:17;;;;;;;59.03;38.45;;;2.30;99.90;;;;;;4933033;29;20044;-86
2021/11/11 01:44:54;;;;;;;60.55;36.80;;;2.40;99.90;;;;;;4932110;29;20087;-86
2021/11/11 01:47:21;;;;;;;58.72;36.17;;;2.30;99.90;;;;;;4935736;29;20027;-87
2021/11/11 01:49:47;;;;;;;60.53;39.30;;;2.30;99.90;;;;;;4918339;29;20032;-87
2021/11/11 01:52:17;;;;;;;64.30;39.53;;;2.40;99.90;;;;;;4915531;29;20032;-84
2021/11/11 01:54:43;;;;;;;62.42;39.42;;;2.30;99.90;;;;;;4932263;29;20163;-88
2021/11/11 01:57:08;;;;;;;59.33;39.33;;;2.40;99.90;;;;;;4933519;29;20043;-85
2021/11/11 01:59:34;;;;;;;70.88;40.88;;;2.40;99.90;;;;;;4932310;29;20051;-87
2021/11/11 02:02:00;;;;;;;64.20;40.35;;;2.40;99.90;;;;;;4931785;29;20492;-86
2021/11/11 02:04:26;;;;;;;59.72;39.13;;;2.40;99.90;;;;;;4930974;29;20496;-85
2021/11/11 02:06:52;;;;;;;57.88;34.88;;;2.40;99.90;;;;;;4929566;29;20035;-86
2021/11/11 02:09:19;;;;;;;61.42;38.55;;;2.40;99.90;;;;;;4932347;29;20127;-87
2021/11/11 02:11:47;;;;;;;58.10;37.05;;;2.30;99.90;;;;;;4933481;29;20517;-86
2021/11/11 02:14:15;;;;;;;59.45;35.88;;;2.30;99.90;;;;;;4934525;29;20183;-86
2021/11/11 02:16:41;;;;;;;56.38;35.83;;;2.20;99.90;;;;;;4934578;29;20039;-87
2021/11/11 02:19:08;;;;;;;58.42;35.63;;;2.10;99.90;;;;;;4936402;29;20047;-86
2021/11/11 02:21:38;;;;;;;49.58;31.60;;;2.10;99.90;;;;;;4932548;29;20506;-85
2021/11/11 02:24:05;;;;;;;51.90;33.00;;;2.00;99.90;;;;;;4931464;29;20526;-87
2021/11/11 02:26:31;;;;;;;60.30;33.83;;;2.00;99.90;;;;;;4932003;29;20036;-85
2021/11/11 02:28:59;;;;;;;122.80;39.35;;;1.90;99.90;;;;;;4931585;29;20048;-87
2021/11/11 02:31:25;;;;;;;59.22;37.25;;;1.90;99.90;;;;;;4949566;29;20091;-85
2021/11/11 02:33:52;;;;;;;52.42;32.10;;;1.90;99.90;;;;;;4953936;29;20038;-85
2021/11/11 02:36:18;;;;;;;55.03;34.05;;;1.90;99.90;;;;;;4933422;29;20024;-85
2021/11/11 02:38:44;;;;;;;53.60;33.78;;;1.80;99.90;;;;;;4932027;29;20072;-84
2021/11/11 02:41:09;;;;;;;55.83;33.97;;;1.80;99.90;;;;;;4931224;29;20503;-86
2021/11/11 02:43:35;;;;;;;53.80;33.03;;;1.80;99.90;;;;;;4937045;28;20056;-86
2021/11/11 02:46:02;;;;;;;54.47;33.95;;;1.70;99.90;;;;;;4932908;29;20130;-84
2021/11/11 02:48:27;;;;;;;57.45;32.85;;;1.80;99.90;;;;;;4935423;29;20403;-86
2021/11/11 02:50:53;;;;;;;57.65;31.63;;;1.80;99.90;;;;;;4937379;29;20118;-86
2021/11/11 02:53:20;;;;;;;55.15;33.00;;;1.60;99.90;;;;;;4936665;29;20035;-85
2021/11/11 02:55:46;;;;;;;54.80;33.40;;;1.70;99.90;;;;;;4933809;29;20034;-84
2021/11/11 02:58:12;;;;;;;53.10;33.63;;;1.80;99.90;;;;;;4933033;29;20043;-85
2021/11/11 03:00:48;;;;;;;52.60;32.08;;;1.80;99.90;;;;;;4934656;29;20079;-85
2021/11/11 03:03:14;;;;;;;54.45;33.13;;;1.80;99.90;;;;;;4923846;29;20057;-85
2021/11/11 03:05:40;;;;;;;57.88;34.97;;;1.70;99.90;;;;;;4932995;29;20035;-85
2021/11/11 03:08:07;;;;;;;60.90;36.13;;;1.70;99.90;;;;;;4932489;29;20043;-84
2021/11/11 03:10:35;;;;;;;55.80;34.42;;;1.60;99.90;;;;;;4930754;29;20079;-85
2021/11/11 03:13:00;;;;;;;56.75;34.40;;;1.60;99.90;;;;;;4932974;29;20044;-85
2021/11/11 03:15:29;;;;;;;54.30;34.95;;;1.60;99.90;;;;;;4933619;29;20036;-86
2021/11/11 03:17:55;;;;;;;57.30;35.63;;;1.60;99.90;;;;;;4932639;29;20051;-87
2021/11/11 03:20:21;;;;;;;64.45;38.58;;;1.60;99.90;;;;;;4929362;29;20054;-86
2021/11/11 03:22:48;;;;;;;62.40;37.88;;;1.60;99.90;;;;;;4931778;29;20523;-87
2021/11/11 03:25:20;;;;;;;60.65;35.83;;;1.70;99.90;;;;;;4927860;29;20023;-86
2021/11/11 03:27:47;;;;;;;57.80;35.13;;;1.70;99.90;;;;;;4915946;29;20415;-87
2021/11/11 03:30:15;;;;;;;58.40;35.22;;;1.80;99.90;;;;;;4933434;29;20492;-85
2021/11/11 03:32:41;;;;;;;58.08;36.33;;;1.70;99.90;;;;;;4931040;29;20053;-85
2021/11/11 03:35:09;;;;;;;58.42;36.83;;;1.70;99.90;;;;;;4935559;29;20529;-84
2021/11/11 03:37:36;;;;;;;59.25;35.38;;;1.70;99.90;;;;;;4919701;29;20039;-84
2021/11/11 03:40:07;;;;;;;56.85;35.63;;;1.60;99.90;;;;;;4933119;29;20050;-84
2021/11/11 03:42:33;;;;;;;53.97;35.00;;;1.60;99.90;;;;;;4932112;29;20044;-85
2021/11/11 03:44:58;;;;;;;54.80;34.47;;;1.60;99.90;;;;;;4930063;29;20510;-88
2021/11/11 03:47:24;;;;;;;80.22;35.33;;;1.50;99.90;;;;;;4932023;29;20031;-86
2021/11/11 03:49:50;;;;;;;53.72;33.30;;;1.40;99.90;;;;;;4930922;29;20031;-86
2021/11/11 03:52:15;;;;;;;57.20;33.35;;;1.50;99.90;;;;;;4931737;29;20062;-83
2021/11/11 03:54:41;;;;;;;50.60;31.60;;;1.40;99.90;;;;;;4941108;29;20075;-85
2021/11/11 03:57:07;;;;;;;52.03;32.95;;;1.40;99.90;;;;;;4946010;29;20044;-85
2021/11/11 03:59:36;;;;;;;55.28;33.15;;;1.40;99.90;;;;;;4931240;29;20165;-85
2021/11/11 04:02:03;;;;;;;54.17;33.72;;;1.40;99.90;;;;;;4931547;29;20075;-85
2021/11/11 04:04:29;;;;;;;46.20;29.88;;;1.40;99.90;;;;;;4931373;29;20461;-87
2021/11/11 04:06:55;;;;;;;61.38;34.83;;;1.30;99.90;;;;;;4937657;29;20035;-87
2021/11/11 04:09:20;;;;;;;59.15;34.67;;;1.40;99.90;;;;;;4933118;29;20035;-87
2021/11/11 04:11:48;;;;;;;55.80;34.65;;;1.30;99.90;;;;;;4931731;29;20090;-85
2021/11/11 04:14:14;;;;;;;60.00;36.70;;;1.30;99.90;;;;;;4931495;29;20039;-86
2021/11/11 04:16:42;;;;;;;57.13;34.90;;;1.30;99.90;;;;;;4930347;29;20426;-86
2021/11/11 04:19:08;;;;;;;56.90;35.50;;;1.40;99.90;;;;;;4931031;29;20075;-87
2021/11/11 04:21:34;;;;;;;59.10;36.30;;;1.50;99.90;;;;;;4938702;29;20118;-86
2021/11/11 04:24:00;;;;;;;58.72;35.92;;;1.40;99.90;;;;;;4935655;29;20085;-87
2021/11/11 04:26:29;;;;;;;56.17;36.70;;;1.50;99.90;;;;;;4934739;29;20118;-85
2021/11/11 04:31:28;;;;;;;66.10;37.83;;;1.60;99.90;;;;;;4930320;29;20040;-85
2021/11/11 04:34:02;;;;;;;64.30;37.25;;;1.50;99.90;;;;;;4929684;29;20036;-85
2021/11/11 05:00:34;;;;;;;66.85;35.72;;;1.20;99.90;;;;;;4893104;29;20417;-85
2021/11/11 05:05:37;;;;;;;52.55;34.00;;;1.10;99.90;;;;;;4892703;29;20040;-84
2021/11/11 05:08:04;;;;;;;65.97;36.80;;;1.10;99.90;;;;;;4899560;29;20270;-85
2021/11/11 05:10:29;;;;;;;55.00;32.70;;;1.10;99.90;;;;;;4892958;29;20111;-85
2021/11/11 05:12:55;;;;;;;47.70;32.15;;;1.00;99.90;;;;;;4924729;29;20099;-85
2021/11/11 05:15:22;;;;;;;57.83;34.53;;;1.10;99.90;;;;;;4907449;29;20051;-86
2021/11/11 05:17:48;;;;;;;58.47;34.97;;;1.00;99.90;;;;;;4897376;29;20482;-85
2021/11/11 05:20:15;;;;;;;59.22;33.63;;;1.10;99.90;;;;;;4915910;29;20114;-88
2021/11/11 05:22:42;;;;;;;65.50;36.08;;;1.20;99.90;;;;;;4932828;29;20063;-86
2021/11/11 05:25:09;;;;;;;57.58;35.00;;;1.20;99.90;;;;;;4934379;29;20028;-87
2021/11/11 05:27:36;;;;;;;53.22;32.38;;;1.10;99.90;;;;;;4936856;29;20039;-86
2021/11/11 05:30:05;;;;;;;58.70;34.67;;;1.10;99.90;;;;;;4934141;29;20036;-85
2021/11/11 05:32:32;;;;;;;55.05;33.90;;;1.10;99.90;;;;;;4927874;29;20036;-85
2021/11/11 05:34:58;;;;;;;55.88;32.85;;;1.00;99.90;;;;;;4936032;29;20079;-84
2021/11/11 05:37:24;;;;;;;55.35;33.95;;;1.00;99.90;;;;;;4945333;29;20075;-85
2021/11/11 05:39:50;;;;;;;56.15;35.72;;;1.10;99.90;;;;;;4935316;29;20035;-85
2021/11/11 05:42:15;;;;;;;56.13;34.10;;;1.20;99.90;;;;;;4925991;29;20050;-85
2021/11/11 05:44:41;;;;;;;52.83;34.10;;;1.10;99.90;;;;;;4931004;29;20044;-87
2021/11/11 05:47:07;;;;;;;60.53;35.67;;;1.20;99.90;;;;;;4932965;29;20095;-87
2021/11/11 05:49:33;;;;;;;56.60;34.60;;;1.10;99.90;;;;;;4934533;29;20040;-85
2021/11/11 05:51:59;;;;;;;57.47;35.08;;;1.20;99.90;;;;;;4947127;29;20074;-84
2021/11/11 05:54:24;;;;;;;58.22;35.63;;;1.20;99.90;;;;;;4934754;29;20040;-86
2021/11/11 05:56:50;;;;;;;57.08;34.72;;;1.20;99.90;;;;;;4933927;29;20127;-87
2021/11/11 05:59:16;;;;;;;53.97;35.72;;;1.30;99.90;;;;;;4934307;29;20443;-87
2021/11/11 06:01:42;;;;;;;57.42;35.03;;;1.30;99.90;;;;;;4928575;29;20090;-84
2021/11/11 06:04:07;;;;;;;61.22;36.53;;;1.30;99.90;;;;;;4919115;29;20369;-85
2021/11/11 06:06:33;;;;;;;54.00;33.58;;;1.40;99.90;;;;;;4930636;29;20055;-85
2021/11/11 06:08:59;;;;;;;57.38;34.38;;;1.30;99.90;;;;;;4931820;29;20094;-86
2021/11/11 06:11:26;;;;;;;54.60;35.30;;;1.40;99.90;;;;;;4932837;29;20103;-84
2021/11/11 06:13:52;;;;;;;54.33;33.05;;;1.30;99.90;;;;;;4932021;29;20043;-86
2021/11/11 06:16:18;;;;;;;51.72;31.75;;;1.30;99.90;;;;;;4932301;29;20059;-86
2021/11/11 06:18:44;;;;;;;56.88;33.33;;;1.30;99.90;;;;;;4935796;28;20035;-85
2021/11/11 06:21:10;;;;;;;53.88;32.25;;;1.30;99.90;;;;;;4933433;29;20040;-85
2021/11/11 06:23:36;;;;;;;49.50;30.10;;;1.30;99.90;;;;;;4935125;29;20043;-84
2021/11/11 06:26:03;;;;;;;56.33;32.05;;;1.30;99.90;;;;;;4931460;29;20123;-85
2021/11/11 06:28:30;;;;;;;54.13;32.67;;;1.40;99.90;;;;;;4931805;29;20559;-86
2021/11/11 06:30:55;;;;;;;51.22;32.42;;;1.40;99.90;;;;;;4934883;29;20031;-85
2021/11/11 06:33:22;;;;;;;50.08;32.13;;;1.50;99.90;;;;;;4944158;29;20035;-84
2021/11/11 06:35:48;;;;;;;44.88;30.05;;;1.50;99.90;;;;;;4945488;29;20040;-86
2021/11/11 06:38:13;;;;;;;57.03;32.42;;;1.50;99.90;;;;;;4931571;29;20106;-85
2021/11/11 06:40:39;;;;;;;50.83;31.75;;;1.60;99.90;;;;;;4932982;29;20118;-85
2021/11/11 06:43:05;;;;;;;56.05;33.20;;;1.60;99.90;;;;;;4933415;29;20737;-85
2021/11/11 06:45:41;;;;;;;53.22;32.83;;;1.70;99.90;;;;;;4934991;29;20042;-84
2021/11/11 06:48:07;;;;;;;48.95;29.92;;;1.60;99.90;;;;;;4930991;29;20047;-86
2021/11/11 06:50:33;;;;;;;52.20;32.33;;;1.60;99.90;;;;;;4931672;29;20043;-84
2021/11/11 06:52:59;;;;;;;48.33;30.40;;;1.70;99.90;;;;;;4939298;29;20396;-83
2021/11/11 06:55:24;;;;;;;53.63;31.38;;;1.60;99.90;;;;;;4930087;29;20067;-86
2021/11/11 06:57:50;;;;;;;50.38;31.42;;;1.80;99.90;;;;;;4934423;29;20075;-86
2021/11/11 07:00:17;;;;;;;56.22;32.85;;;1.70;99.90;;;;;;4932343;29;20461;-86
2021/11/11 07:02:43;;;;;;;53.50;32.00;;;1.70;99.90;;;;;;4935662;29;20051;-84
2021/11/11 07:05:09;;;;;;;53.55;32.50;;;1.70;99.90;;;;;;4932028;29;20050;-85
2021/11/11 07:07:35;;;;;;;52.58;31.27;;;1.90;99.90;;;;;;4929709;29;20044;-85
2021/11/11 07:10:00;;;;;;;48.85;32.00;;;1.80;99.90;;;;;;4931286;29;20035;-85
2021/11/11 07:12:26;;;;;;;51.42;33.90;;;1.90;99.90;;;;;;4933608;29;20032;-86
2021/11/11 07:14:52;;;;;;;53.88;33.58;;;2.00;99.90;;;;;;4933135;29;20055;-86
2021/11/11 07:17:17;;;;;;;59.15;36.55;;;2.00;99.90;;;;;;4930337;29;20059;-84
2021/11/11 07:19:43;;;;;;;53.78;34.25;;;2.10;99.90;;;;;;4930573;29;20488;-85
2021/11/11 07:22:09;;;;;;;57.85;34.60;;;2.20;99.90;;;;;;4931369;29;20103;-84
2021/11/11 07:24:34;;;;;;;59.45;35.30;;;2.30;99.90;;;;;;4937019;29;20572;-84
2021/11/11 07:27:01;;;;;;;61.47;35.67;;;2.40;99.90;;;;;;4930998;29;20035;-85
2021/11/11 07:29:27;;;;;;;52.72;32.97;;;2.40;99.90;;;;;;4916066;29;20126;-84
2021/11/11 07:31:54;;;;;;;52.92;34.00;;;2.50;99.90;;;;;;4930195;29;20039;-85
2021/11/11 07:34:24;;;;;;;54.55;35.65;;;2.60;99.90;;;;;;4930249;29;20519;-86
2021/11/11 07:36:52;;;;;;;54.50;33.38;;;2.70;99.90;;;;;;4931770;29;20031;-85
2021/11/11 07:39:18;;;;;;;52.60;32.92;;;2.80;99.90;;;;;;4931171;29;20039;-86
2021/11/11 07:41:45;;;;;;;56.92;37.05;;;2.80;99.90;;;;;;4935644;29;20395;-86
2021/11/11 07:44:12;;;;;;;62.88;38.80;;;2.90;99.90;;;;;;4933632;29;20043;-84
2021/11/11 07:46:40;;;;;;;59.10;37.38;;;3.00;99.90;;;;;;4930516;29;20042;-86
2021/11/11 07:49:06;;;;;;;54.60;35.97;;;3.00;99.90;;;;;;4931558;29;20048;-85
2021/11/11 07:51:32;;;;;;;58.95;37.08;;;3.10;99.90;;;;;;4932949;29;20043;-84
2021/11/11 07:54:00;;;;;;;58.22;36.63;;;3.10;99.90;;;;;;4933783;29;20035;-83
2021/11/11 07:56:26;;;;;;;59.42;38.22;;;3.10;99.90;;;;;;4933016;29;20068;-85
2021/11/11 07:58:53;;;;;;;62.08;39.97;;;3.30;99.90;;;;;;4932012;29;20086;-84
2021/11/11 08:01:18;;;;;;;65.35;40.47;;;3.30;99.90;;;;;;4914563;29;20028;-84
2021/11/11 08:03:44;;;;;;;51.30;34.25;;;3.40;99.90;;;;;;4932741;29;20142;-84
2021/11/11 08:06:11;;;;;;;57.80;38.13;;;3.50;99.90;;;;;;4930293;29;20499;-84
2021/11/11 08:08:37;;;;;;;56.10;38.75;;;3.50;99.90;;;;;;4930476;29;20042;-84
2021/11/11 08:11:03;;;;;;;57.00;38.13;;;3.70;99.90;;;;;;4940528;29;20032;-85
2021/11/11 08:13:29;;;;;;;63.33;40.70;;;3.80;99.90;;;;;;4934613;29;20058;-85
2021/11/11 08:15:55;;;;;;;58.78;38.72;;;3.90;99.90;;;;;;4935231;29;20455;-85
2021/11/11 08:18:21;;;;;;;57.65;36.65;;;4.00;99.90;;;;;;4935334;29;20504;-85
2021/11/11 08:20:49;;;;;;;58.20;38.20;;;4.10;99.90;;;;;;4930224;29;20047;-86
2021/11/11 08:23:16;;;;;;;58.53;38.88;;;4.20;99.90;;;;;;4930379;29;20436;-85
2021/11/11 08:25:46;;;;;;;57.72;37.10;;;4.20;99.90;;;;;;4932592;29;20076;-84
2021/11/11 08:28:12;;;;;;;59.63;39.20;;;4.30;99.90;;;;;;4933260;29;20043;-84
2021/11/11 08:30:38;;;;;;;56.13;36.45;;;4.30;99.90;;;;;;4932916;29;20165;-84
2021/11/11 08:33:03;;;;;;;54.90;35.30;;;4.40;99.90;;;;;;4931784;29;20057;-83
2021/11/11 08:35:29;;;;;;;54.00;36.28;;;4.50;99.90;;;;;;4930701;29;20027;-84
2021/11/11 08:37:55;;;;;;;52.17;34.75;;;4.60;99.90;;;;;;4931104;29;20043;-85
2021/11/11 08:40:22;;;;;;;56.08;35.55;;;4.70;99.90;;;;;;4931383;29;20118;-84
2021/11/11 08:42:51;;;;;;;54.10;36.20;;;4.80;99.90;;;;;;4937307;29;20040;-85
2021/11/11 08:45:17;;;;;;;54.05;35.25;;;4.80;99.90;;;;;;4935640;29;20058;-84
2021/11/11 08:47:45;;;;;;;50.75;34.63;;;4.90;99.90;;;;;;4929604;29;20068;-84
2021/11/11 08:50:12;;;;;;;55.00;35.22;;;5.00;99.90;;;;;;4918777;29;20109;-85
2021/11/11 08:52:48;;;;;;;55.08;35.10;;;5.00;99.90;;;;;;4933001;29;20504;-85
2021/11/11 08:55:19;;;;;;;53.17;34.33;;;5.10;99.90;;;;;;4937412;28;20145;-84
2021/11/11 08:57:45;;;;;;;51.67;33.90;;;5.20;99.90;;;;;;4932941;29;20398;-85
2021/11/11 09:00:15;;;;;;;47.55;33.35;;;5.20;99.90;;;;;;4921315;29;20051;-83
2021/11/11 09:02:42;;;;;;;48.17;32.05;;;5.30;99.90;;;;;;4932670;29;20055;-83
2021/11/11 09:05:09;;;;;;;45.47;31.83;;;5.40;99.90;;;;;;4929090;29;20028;-85
2021/11/11 09:07:38;;;;;;;44.53;30.92;;;5.50;99.90;;;;;;4934643;29;20036;-83
2021/11/11 09:10:07;;;;;;;43.13;32.00;;;5.60;99.90;;;;;;4934932;29;20039;-83
2021/11/11 09:12:32;;;;;;;42.47;30.90;;;5.70;99.90;;;;;;4931530;29;20488;-84
2021/11/11 09:14:59;;;;;;;43.92;29.80;;;5.80;99.90;;;;;;4919190;29;20122;-84
2021/11/11 09:17:24;;;;;;;43.65;30.70;;;5.80;99.90;;;;;;4928887;29;20452;-84
2021/11/11 09:19:50;;;;;;;40.28;28.50;;;5.90;99.90;;;;;;4933281;29;20038;-85
2021/11/11 09:22:16;;;;;;;43.05;29.58;;;5.90;99.90;;;;;;4917750;29;20527;-84
2021/11/11 09:24:42;;;;;;;40.42;29.40;;;5.90;99.90;;;;;;4936766;29;20040;-84
2021/11/11 09:27:07;;;;;;;40.63;29.13;;;6.00;99.90;;;;;;4932668;29;20571;-85
2021/11/11 09:29:33;;;;;;;44.08;29.70;;;6.00;99.90;;;;;;4936668;29;20067;-84
2021/11/11 09:31:59;;;;;;;41.80;29.25;;;6.10;99.90;;;;;;4939526;29;20051;-84
2021/11/11 09:34:24;;;;;;;40.78;29.35;;;6.20;99.90;;;;;;4932649;29;20048;-85
2021/11/11 09:36:50;;;;;;;41.92;27.73;;;6.30;99.90;;;;;;4918704;29;20031;-83
2021/11/11 09:39:16;;;;;;;40.60;28.67;;;6.30;99.90;;;;;;4941446;29;20043;-84
2021/11/11 09:41:41;;;;;;;41.05;29.10;;;6.40;99.90;;;;;;4934378;29;20046;-85
2021/11/11 09:44:08;;;;;;;40.63;28.65;;;6.40;99.90;;;;;;4934082;29;20039;-85
2021/11/11 09:46:33;;;;;;;42.22;28.20;;;6.40;99.90;;;;;;4934347;29;20575;-84
2021/11/11 09:49:00;;;;;;;41.38;28.95;;;6.50;99.90;;;;;;4936968;29;20122;-84
2021/11/11 09:51:26;;;;;;;41.90;27.98;;;6.50;99.90;;;;;;4934715;29;20535;-85
2021/11/11 09:54:18;;;;;;;43.03;29.13;;;6.50;99.90;;;;;;4934072;29;20051;-83
2021/11/11 09:59:31;;;;;;;42.72;28.10;;;6.60;99.90;;;;;;4931613;29;20054;-83
2021/11/11 10:01:58;;;;;;;39.28;28.40;;;6.70;99.90;;;;;;4917172;29;20078;-83
2021/11/11 10:04:24;;;;;;;40.15;28.88;;;6.80;99.90;;;;;;4932170;29;20115;-84
2021/11/11 10:06:50;;;;;;;40.75;28.77;;;6.80;99.90;;;;;;4933949;29;20043;-85
2021/11/11 10:09:21;;;;;;;41.03;27.80;;;6.90;99.90;;;;;;4932641;29;20039;-83
2021/11/11 10:11:50;;;;;;;36.95;26.50;;;6.90;99.90;;;;;;4932662;29;20032;-85
2021/11/11 10:14:20;;;;;;;38.03;27.05;;;7.00;99.90;;;;;;4936540;29;20475;-85
2021/11/11 10:16:55;;;;;;;40.40;26.45;;;7.10;99.90;;;;;;4931471;29;20032;-82
2021/11/11 10:19:21;;;;;;;40.45;27.63;;;7.10;99.90;;;;;;4921112;29;20514;-83
2021/11/11 10:22:21;;;;;;;42.58;28.17;;;7.10;99.90;;;;;;4934868;29;20053;-85
2021/11/11 10:24:52;;;;;;;38.28;26.40;;;7.20;99.90;;;;;;4931170;29;20043;-83
2021/11/11 10:27:38;;;;;;;35.55;25.23;;;7.20;99.90;;;;;;4934933;29;20399;-82
2021/11/11 10:30:06;;;;;;;35.10;25.00;;;7.30;99.90;;;;;;4916903;29;20388;-83
2021/11/11 10:32:38;;;;;;;38.70;25.95;;;7.30;99.90;;;;;;4930645;29;20127;-84
2021/11/11 10:35:03;;;;;;;36.13;26.60;;;7.30;99.90;;;;;;4931849;29;20028;-84
2021/11/11 10:37:32;;;;;;;38.63;27.00;;;7.30;99.90;;;;;;4935125;29;20054;-82
2021/11/11 10:40:25;;;;;;;36.05;26.10;;;7.30;99.90;;;;;;4933748;29;20035;-84
2021/11/11 10:42:54;;;;;;;37.30;25.85;;;7.40;99.90;;;;;;4920175;29;20046;-84
2021/11/11 10:45:40;;;;;;;36.50;27.17;;;7.50;99.90;;;;;;4933328;29;20040;-84
2021/11/11 10:48:10;;;;;;;36.58;26.80;;;7.50;99.90;;;;;;4917112;29;20069;-83
2021/11/11 10:50:43;;;;;;;36.88;25.77;;;7.50;99.90;;;;;;4930873;29;20031;-84
2021/11/11 10:53:12;;;;;;;37.35;26.90;;;7.60;99.90;;;;;;4931597;29;20083;-85
2021/11/11 10:55:47;;;;;;;37.70;26.98;;;7.60;99.90;;;;;;4929056;29;20044;-82
2021/11/11 10:58:15;;;;;;;39.15;27.15;;;7.60;99.90;;;;;;4931657;29;20507;-84
2021/11/11 11:01:00;;;;;;;40.38;26.70;;;7.70;99.90;;;;;;4934386;29;20047;-85
2021/11/11 11:03:27;;;;;;;37.92;27.65;;;7.70;99.90;;;;;;4939352;28;20129;-85
2021/11/11 11:06:12;;;;;;;38.30;26.83;;;7.70;99.90;;;;;;4929350;29;20042;-83
2021/11/11 11:08:46;;;;;;;34.25;24.80;;;7.80;99.90;;;;;;4921187;29;20051;-82
2021/11/11 11:11:15;;;;;;;35.72;26.55;;;7.90;99.90;;;;;;4929251;29;20046;-82
2021/11/11 11:13:44;;;;;;;34.50;25.95;;;7.90;99.90;;;;;;4923647;29;20090;-84
2021/11/11 11:16:15;;;;;;;33.58;24.77;;;8.00;99.90;;;;;;4917631;29;20038;-84
2021/11/11 11:18:47;;;;;;;36.97;25.80;;;8.00;99.90;;;;;;4932213;29;20724;-84
2021/11/11 11:21:15;;;;;;;36.30;27.25;;;8.00;99.90;;;;;;4928231;29;20035;-85
2021/11/11 11:24:01;;;;;;;37.20;25.85;;;8.10;99.90;;;;;;4931986;29;20130;-83
2021/11/11 11:26:30;;;;;;;33.03;25.63;;;8.10;99.90;;;;;;4929885;29;20039;-82
2021/11/11 11:31:41;;;;;;;33.83;25.67;;;8.20;99.90;;;;;;4926788;29;20087;-84
2021/11/11 11:34:12;;;;;;;31.20;23.80;;;8.30;99.90;;;;;;4913074;29;20043;-84
2021/11/11 11:37:02;;;;;;;34.55;25.42;;;8.30;99.90;;;;;;4928882;29;20047;-83
2021/11/11 11:39:31;;;;;;;;;;;8.40;99.90;;;;;;4913979;29;20721;-82
2021/11/11 11:42:07;;;;;;;33.75;24.35;;;8.40;99.90;;;;;;4931873;29;19915;-82
2021/11/11 11:44:39;;;;;;;32.65;23.88;;;8.40;99.90;;;;;;4928047;29;20066;-84
2021/11/11 11:47:29;;;;;;;32.28;23.70;;;8.50;99.90;;;;;;4913877;29;20035;-83
2021/11/11 11:50:03;;;;;;;34.35;25.10;;;8.50;99.90;;;;;;4925155;29;20518;-82
2021/11/11 11:52:31;;;;;;;32.22;23.77;;;8.50;99.90;;;;;;4930589;29;20036;-84
2021/11/11 12:00:04;;;;;;;32.10;23.35;;;8.60;99.90;;;;;;4928274;29;20130;-85
2021/11/11 12:13:27;;;;;;;30.92;23.42;;;8.70;99.90;;;;;;4928786;29;20106;-85
2021/11/11 12:16:11;;;;;;;33.13;25.08;;;8.80;99.90;;;;;;4923499;29;20039;-82
2021/11/11 12:39:43;;;;;;;34.58;24.63;;;9.00;99.90;;;;;;4869859;29;20503;-85
2021/11/11 12:42:38;;;;;;;32.00;24.90;;;9.00;99.90;;;;;;4882532;29;20143;-85
2021/11/11 12:45:19;;;;;;;33.15;25.27;;;9.00;99.90;;;;;;4880553;29;20591;-83
2021/11/11 12:47:47;;;;;;;32.55;24.58;;;9.10;99.90;;;;;;4877401;29;20168;-83
2021/11/11 12:50:37;;;;;;;35.72;24.40;;;9.10;99.90;;;;;;4877302;29;20223;-83
2021/11/11 12:53:09;;;;;;;31.80;23.63;;;9.10;99.90;;;;;;4871319;29;20128;-82
2021/11/11 12:55:36;;;;;;;34.38;26.13;;;9.10;99.90;;;;;;4871802;29;20425;-84
2021/11/11 12:58:05;;;;;;;34.00;26.88;;;9.10;99.90;;;;;;4877840;29;20487;-84
2021/11/11 13:00:41;;;;;;;32.60;25.38;;;9.10;99.90;;;;;;4889329;29;20043;-84
2021/11/11 13:03:08;;;;;;;32.45;25.80;;;9.10;99.90;;;;;;4932941;29;20043;-82
2021/11/11 13:05:55;;;;;;;33.95;26.27;;;9.10;99.90;;;;;;4931898;29;20119;-85
2021/11/11 13:08:42;;;;;;;32.08;26.02;;;9.00;99.90;;;;;;4933100;29;20067;-83
2021/11/11 13:11:09;;;;;;;34.38;25.85;;;9.10;99.90;;;;;;4930611;29;20044;-83
2021/11/11 13:13:35;;;;;;;35.45;24.67;;;9.10;99.90;;;;;;4934737;29;20036;-83
2021/11/11 13:16:16;;;;;;;31.23;24.60;;;9.00;99.90;;;;;;4941801;29;20031;-85
2021/11/11 13:18:51;;;;;;;36.47;26.15;;;9.10;99.90;;;;;;4935189;29;20134;-84
2021/11/11 13:21:28;;;;;;;32.10;25.20;;;9.00;99.90;;;;;;4936255;29;20047;-82
2021/11/11 13:24:40;;;;;;;31.27;23.42;;;9.00;99.90;;;;;;4915293;29;20523;-84
2021/11/11 13:27:53;;;;;;;35.20;25.25;;;9.00;99.90;;;;;;4933184;29;20035;-85
2021/11/11 16:27:30;;;;;;;46.35;32.17;;;4.70;99.90;;;;;;4878824;29;20043;-84
2021/11/11 16:30:17;;;;;;;45.40;31.63;;;4.60;99.90;;;;;;4876376;29;20117;-84
2021/11/11 16:32:43;;;;;;;46.40;29.98;;;4.70;99.90;;;;;;4873987;29;20045;-85
2021/11/11 16:35:12;;;;;;;47.33;33.78;;;4.60;99.90;;;;;;4874722;29;20037;-85
2021/11/11 16:37:38;;;;;;;45.65;32.92;;;4.50;99.90;;;;;;4886454;29;20196;-83
2021/11/11 16:40:06;;;;;;;49.25;35.53;;;4.50;99.90;;;;;;4874286;29;20128;-84
2021/11/11 16:42:32;;;;;;;64.05;42.05;;;4.50;99.90;;;;;;4874978;29;20128;-84
2021/11/11 16:44:58;;;;;;;74.85;47.58;;;4.50;99.90;;;;;;4878674;29;20203;-84
2021/11/11 16:47:23;;;;;;;66.43;41.40;;;4.50;99.90;;;;;;4873754;29;20037;-84
2021/11/11 16:49:49;;;;;;;54.13;37.58;;;4.50;99.90;;;;;;4883183;29;20423;-84
2021/11/11 16:52:15;;;;;;;53.70;37.95;;;4.50;99.90;;;;;;4874086;29;20056;-84
2021/11/11 16:54:41;;;;;;;53.33;37.30;;;4.50;99.90;;;;;;4873976;29;20074;-84